createdAt,value
2017-06-19T00:00:22.747Z,24.90
2017-06-19T00:02:50.198Z,24.90
2017-06-19T00:05:17.650Z,24.80
2017-06-19T00:07:45.138Z,24.90
2017-06-19T00:10:12.616Z,24.80
2017-06-19T00:12:40.071Z,24.80
2017-06-19T00:15:07.589Z,24.80
2017-06-19T00:17:35.044Z,24.80
2017-06-19T00:20:03.271Z,24.80
2017-06-19T00:22:36.544Z,24.80
2017-06-19T00:25:04.010Z,24.80
2017-06-19T00:27:31.495Z,24.80
2017-06-19T00:29:58.958Z,24.80
2017-06-19T00:32:26.422Z,24.80
2017-06-19T00:34:53.891Z,24.80
2017-06-19T00:37:21.355Z,24.80
2017-06-19T00:39:49.583Z,24.80
2017-06-19T00:42:17.047Z,24.80
2017-06-19T00:44:44.507Z,24.80
2017-06-19T00:47:11.973Z,24.80
2017-06-19T00:49:39.435Z,24.80
2017-06-19T00:52:06.890Z,24.80
2017-06-19T00:54:34.351Z,24.80
2017-06-19T00:57:01.815Z,24.80
2017-06-19T00:59:29.271Z,24.70
2017-06-19T01:01:56.727Z,24.70
2017-06-19T01:04:24.194Z,24.70
2017-06-19T01:06:51.643Z,24.70
2017-06-19T01:09:19.102Z,24.70
2017-06-19T01:11:46.555Z,24.70
2017-06-19T01:14:14.010Z,24.70
2017-06-19T01:16:42.279Z,24.70
2017-06-19T01:19:09.731Z,24.70
2017-06-19T01:21:37.453Z,24.70
2017-06-19T01:24:04.935Z,24.70
2017-06-19T01:26:32.390Z,24.70
2017-06-19T01:28:59.873Z,24.70
2017-06-19T01:31:27.328Z,24.70
2017-06-19T01:33:54.800Z,24.70
2017-06-19T01:36:22.263Z,24.70
2017-06-19T01:38:50.491Z,24.60
2017-06-19T01:41:18.026Z,24.60
2017-06-19T01:43:45.487Z,24.70
2017-06-19T01:46:12.943Z,24.70
2017-06-19T01:48:40.402Z,24.70
2017-06-19T01:51:07.862Z,24.70
2017-06-19T01:53:35.318Z,24.70
2017-06-19T01:56:02.770Z,24.60
2017-06-19T01:58:30.237Z,24.60
2017-06-19T02:00:57.708Z,24.60
2017-06-19T02:03:25.158Z,24.60
2017-06-19T02:05:52.626Z,24.60
2017-06-19T02:08:20.099Z,24.60
2017-06-19T02:10:47.574Z,24.60
2017-06-19T02:13:15.046Z,24.60
2017-06-19T02:15:42.509Z,24.60
2017-06-19T02:18:09.967Z,24.60
2017-06-19T02:20:37.430Z,24.60
2017-06-19T02:23:04.880Z,24.60
2017-06-19T02:25:32.348Z,24.60
2017-06-19T02:27:59.823Z,24.60
2017-06-19T02:30:27.301Z,24.60
2017-06-19T02:32:54.783Z,24.60
2017-06-19T02:35:23.002Z,24.60
2017-06-19T02:37:50.471Z,24.50
2017-06-19T02:40:17.983Z,24.60
2017-06-19T02:42:45.474Z,24.60
2017-06-19T02:45:12.943Z,24.60
2017-06-19T02:47:40.406Z,24.60
2017-06-19T02:50:07.883Z,24.60
2017-06-19T02:52:35.346Z,24.60
2017-06-19T02:55:03.583Z,24.60
2017-06-19T02:57:31.071Z,24.50
2017-06-19T02:59:58.522Z,24.50
2017-06-19T03:02:25.982Z,24.50
2017-06-19T03:04:53.451Z,24.50
2017-06-19T03:07:20.903Z,24.50
2017-06-19T03:09:48.371Z,24.50
2017-06-19T03:12:16.642Z,24.50
2017-06-19T03:14:44.867Z,24.50
2017-06-19T03:17:12.368Z,24.50
2017-06-19T03:19:39.833Z,24.50
2017-06-19T03:22:08.044Z,24.50
2017-06-19T03:24:35.515Z,24.50
2017-06-19T03:27:02.967Z,24.50
2017-06-19T03:29:30.479Z,24.50
2017-06-19T03:31:58.710Z,24.50
2017-06-19T03:34:26.179Z,24.50
2017-06-19T03:36:53.650Z,24.50
2017-06-19T03:39:21.102Z,24.40
2017-06-19T03:41:48.560Z,24.40
2017-06-19T03:44:16.022Z,24.50
2017-06-19T03:46:43.508Z,24.50
2017-06-19T03:49:11.022Z,24.50
2017-06-19T03:51:38.489Z,24.50
2017-06-19T03:54:06.770Z,24.50
2017-06-19T03:56:34.218Z,24.40
2017-06-19T03:59:01.682Z,24.40
2017-06-19T04:01:29.139Z,24.50
2017-06-19T04:03:56.615Z,24.50
2017-06-19T04:06:24.085Z,24.50
2017-06-19T04:08:51.566Z,24.50
2017-06-19T04:11:19.033Z,24.40
2017-06-19T04:13:46.495Z,24.40
2017-06-19T04:16:13.963Z,24.40
2017-06-19T04:18:41.427Z,24.40
2017-06-19T04:21:08.886Z,24.40
2017-06-19T04:23:36.417Z,24.40
2017-06-19T04:26:03.878Z,24.40
2017-06-19T04:28:31.346Z,24.40
2017-06-19T04:30:58.803Z,24.40
2017-06-19T04:33:26.272Z,24.40
2017-06-19T04:35:53.730Z,24.40
2017-06-19T04:38:21.190Z,24.50
2017-06-19T04:40:48.654Z,24.50
2017-06-19T04:43:17.047Z,24.50
2017-06-19T04:45:44.526Z,24.40
2017-06-19T04:48:11.998Z,24.40
2017-06-19T04:50:39.480Z,24.40
2017-06-19T04:53:06.938Z,24.50
2017-06-19T04:55:34.402Z,24.50
2017-06-19T04:58:01.867Z,24.50
2017-06-19T05:00:29.333Z,24.50
2017-06-19T05:02:56.814Z,24.40
2017-06-19T05:05:24.327Z,24.50
2017-06-19T05:07:51.790Z,24.50
2017-06-19T05:10:19.250Z,24.50
2017-06-19T05:12:46.739Z,24.50
2017-06-19T05:15:14.189Z,24.50
2017-06-19T05:17:41.658Z,24.50
2017-06-19T05:20:09.127Z,24.50
2017-06-19T05:22:36.610Z,24.50
2017-06-19T05:25:04.058Z,24.50
2017-06-19T05:27:31.562Z,24.50
2017-06-19T05:29:59.029Z,24.50
2017-06-19T05:32:26.486Z,24.50
2017-06-19T05:34:53.950Z,24.50
2017-06-19T05:37:21.438Z,24.50
2017-06-19T05:39:48.900Z,24.50
2017-06-19T05:42:16.370Z,24.60
2017-06-19T05:44:43.822Z,24.60
2017-06-19T05:47:11.282Z,24.60
2017-06-19T05:49:38.746Z,24.60
2017-06-19T05:52:06.202Z,24.60
2017-06-19T05:54:33.677Z,24.60
2017-06-19T05:57:01.123Z,24.60
2017-06-19T05:59:28.571Z,24.60
2017-06-19T06:01:56.035Z,24.60
2017-06-19T06:04:23.501Z,24.60
2017-06-19T06:06:50.962Z,24.60
2017-06-19T06:09:18.424Z,24.60
2017-06-19T06:11:45.878Z,24.70
2017-06-19T06:14:13.462Z,24.70
2017-06-19T06:16:40.928Z,24.70
2017-06-19T06:19:08.402Z,24.70
2017-06-19T06:21:35.866Z,24.80
2017-06-19T06:24:03.338Z,24.80
2017-06-19T06:26:30.802Z,24.90
2017-06-19T06:28:58.279Z,24.90
2017-06-19T06:31:26.506Z,25.00
2017-06-19T06:33:53.970Z,24.90
2017-06-19T06:36:21.448Z,25.00
2017-06-19T06:38:48.902Z,24.90
2017-06-19T06:41:16.367Z,24.90
2017-06-19T06:43:44.594Z,25.00
2017-06-19T06:46:12.062Z,25.00
2017-06-19T06:48:42.200Z,25.00
2017-06-19T06:51:10.665Z,25.00
2017-06-19T06:53:38.126Z,25.00
2017-06-19T06:56:05.590Z,25.00
2017-06-19T06:58:33.059Z,25.00
2017-06-19T07:01:00.522Z,25.00
2017-06-19T07:03:28.762Z,25.00
2017-06-19T07:05:56.226Z,24.90
2017-06-19T07:08:23.690Z,25.00
2017-06-19T07:10:51.154Z,25.00
2017-06-19T07:13:18.623Z,25.00
2017-06-19T07:15:46.862Z,25.00
2017-06-19T07:18:14.339Z,25.00
2017-06-19T07:20:41.822Z,25.00
2017-06-19T07:23:10.055Z,25.10
2017-06-19T07:25:37.685Z,25.10
2017-06-19T07:28:05.150Z,25.10
2017-06-19T07:30:32.622Z,25.10
2017-06-19T07:33:00.090Z,25.10
2017-06-19T07:35:27.558Z,25.20
2017-06-19T07:37:55.024Z,25.10
2017-06-19T07:40:22.523Z,25.10
2017-06-19T07:42:50.002Z,25.10
2017-06-19T07:45:17.511Z,25.20
2017-06-19T07:47:45.731Z,25.20
2017-06-19T07:50:13.201Z,25.20
2017-06-19T07:52:40.662Z,25.20
2017-06-19T07:55:08.184Z,25.20
2017-06-19T07:57:35.644Z,25.20
2017-06-19T08:00:03.107Z,25.20
2017-06-19T08:02:30.595Z,25.20
2017-06-19T08:04:58.070Z,25.20
2017-06-19T08:07:25.571Z,25.20
2017-06-19T08:09:53.050Z,25.20
2017-06-19T08:12:20.506Z,25.20
2017-06-19T08:14:47.970Z,25.20
2017-06-19T08:17:15.439Z,25.20
2017-06-19T08:19:42.894Z,25.20
2017-06-19T08:22:10.355Z,25.20
2017-06-19T08:24:37.836Z,25.30
2017-06-19T08:27:06.066Z,25.30
2017-06-19T08:29:33.547Z,25.30
2017-06-19T08:32:01.003Z,25.30
2017-06-19T08:34:28.463Z,25.30
2017-06-19T08:36:55.923Z,25.30
2017-06-19T08:39:24.154Z,25.30
2017-06-19T08:41:51.623Z,25.30
2017-06-19T08:44:19.149Z,25.30
2017-06-19T08:46:46.594Z,25.30
2017-06-19T08:49:14.054Z,25.30
2017-06-19T08:51:41.518Z,25.30
2017-06-19T08:54:08.972Z,25.30
2017-06-19T08:56:36.435Z,25.30
2017-06-19T08:59:03.887Z,25.30
2017-06-19T09:01:31.355Z,25.40
2017-06-19T09:03:58.810Z,25.30
2017-06-19T09:06:26.284Z,25.40
2017-06-19T09:08:53.819Z,25.40
2017-06-19T09:11:21.313Z,25.30
2017-06-19T09:13:48.774Z,25.40
2017-06-19T09:16:16.234Z,25.30
2017-06-19T09:18:43.690Z,25.30
2017-06-19T09:21:11.152Z,25.40
2017-06-19T09:23:38.622Z,25.40
2017-06-19T09:26:06.906Z,25.40
2017-06-19T09:28:35.127Z,25.40
2017-06-19T09:31:02.582Z,25.40
2017-06-19T09:33:30.039Z,25.40
2017-06-19T09:35:57.507Z,25.40
2017-06-19T09:38:24.982Z,25.40
2017-06-19T09:40:52.442Z,25.40
2017-06-19T09:43:20.718Z,25.40
2017-06-19T09:45:48.985Z,25.40
2017-06-19T09:48:16.438Z,25.40
2017-06-19T09:50:43.910Z,25.40
2017-06-19T09:53:11.454Z,25.40
2017-06-19T09:55:38.935Z,25.50
2017-06-19T09:58:07.190Z,25.40
2017-06-19T10:00:34.647Z,25.40
2017-06-19T10:03:02.122Z,25.40
2017-06-19T10:05:30.362Z,25.50
2017-06-19T10:07:57.822Z,25.50
2017-06-19T10:10:25.286Z,25.50
2017-06-19T10:12:52.810Z,25.50
2017-06-19T10:15:20.307Z,25.50
2017-06-19T10:17:47.794Z,25.50
2017-06-19T10:20:15.322Z,25.50
2017-06-19T10:22:42.792Z,25.60
2017-06-19T10:25:11.026Z,25.50
2017-06-19T10:27:38.670Z,25.60
2017-06-19T10:30:06.172Z,25.60
2017-06-19T10:32:33.726Z,25.60
2017-06-19T10:35:01.286Z,25.60
2017-06-19T10:37:28.742Z,25.60
2017-06-19T10:39:56.202Z,25.60
2017-06-19T10:42:23.703Z,25.60
2017-06-19T10:44:51.163Z,25.60
2017-06-19T10:47:18.621Z,25.60
2017-06-19T10:49:46.081Z,25.70
2017-06-19T10:52:13.545Z,25.70
2017-06-19T10:54:41.034Z,25.60
2017-06-19T10:57:08.482Z,25.70
2017-06-19T10:59:35.938Z,25.70
2017-06-19T11:02:03.398Z,25.70
2017-06-19T11:04:30.847Z,25.70
2017-06-19T11:06:58.334Z,25.70
2017-06-19T11:09:26.558Z,25.80
2017-06-19T11:11:54.015Z,25.70
2017-06-19T11:14:21.567Z,25.80
2017-06-19T11:16:49.010Z,25.80
2017-06-19T11:19:16.478Z,25.80
2017-06-19T11:21:43.940Z,25.80
2017-06-19T11:24:11.412Z,25.80
2017-06-19T11:26:38.875Z,25.80
2017-06-19T11:29:06.377Z,25.80
2017-06-19T11:31:34.602Z,25.80
2017-06-19T11:34:02.091Z,25.80
2017-06-19T11:36:29.554Z,25.80
2017-06-19T11:38:57.828Z,25.80
2017-06-19T11:41:25.328Z,25.80
2017-06-19T11:43:52.790Z,25.80
2017-06-19T11:46:20.285Z,25.90
2017-06-19T11:48:47.738Z,25.90
2017-06-19T11:51:15.263Z,25.90
2017-06-19T11:53:42.718Z,25.90
2017-06-19T11:56:10.178Z,25.90
2017-06-19T11:58:37.654Z,25.90
2017-06-19T12:01:05.123Z,25.90
2017-06-19T12:03:32.590Z,25.90
2017-06-19T12:06:00.059Z,26.00
2017-06-19T12:08:28.298Z,26.00
2017-06-19T12:10:55.754Z,26.00
2017-06-19T12:13:23.260Z,26.00
2017-06-19T12:15:50.740Z,26.00
2017-06-19T12:18:18.202Z,26.00
2017-06-19T12:20:45.662Z,26.00
2017-06-19T12:23:13.138Z,26.00
2017-06-19T12:25:40.607Z,26.10
2017-06-19T12:28:08.064Z,26.10
2017-06-19T12:30:35.538Z,26.00
2017-06-19T12:33:02.986Z,26.10
2017-06-19T12:35:30.451Z,26.10
2017-06-19T12:37:57.931Z,26.10
2017-06-19T12:40:25.394Z,26.10
2017-06-19T12:42:52.866Z,26.10
2017-06-19T12:45:20.322Z,26.20
2017-06-19T12:47:47.774Z,26.20
2017-06-19T12:50:15.234Z,26.20
2017-06-19T12:52:42.793Z,26.20
2017-06-19T12:55:10.250Z,26.20
2017-06-19T12:57:37.710Z,26.20
2017-06-19T13:00:05.174Z,26.20
2017-06-19T13:02:32.638Z,26.20
2017-06-19T13:05:00.098Z,26.20
2017-06-19T13:07:27.563Z,26.20
2017-06-19T13:09:55.128Z,26.20
2017-06-19T13:12:22.697Z,26.30
2017-06-19T13:14:50.154Z,26.20
2017-06-19T13:17:17.630Z,26.20
2017-06-19T13:19:45.086Z,26.30
2017-06-19T13:22:13.378Z,26.20
2017-06-19T13:24:40.846Z,26.30
2017-06-19T13:27:08.312Z,26.30
2017-06-19T13:29:35.788Z,26.30
2017-06-19T13:32:03.246Z,26.30
2017-06-19T13:34:30.702Z,26.30
2017-06-19T13:36:58.167Z,26.30
2017-06-19T13:39:25.626Z,26.30
2017-06-19T13:41:53.095Z,26.30
2017-06-19T13:44:20.544Z,26.30
2017-06-19T13:46:48.004Z,26.30
2017-06-19T13:49:15.470Z,26.30
2017-06-19T13:51:42.918Z,26.40
2017-06-19T13:54:10.383Z,26.40
2017-06-19T13:56:37.842Z,26.40
2017-06-19T13:59:06.063Z,26.40
2017-06-19T14:01:33.525Z,26.40
2017-06-19T14:04:01.012Z,26.40
2017-06-19T14:06:28.480Z,26.40
2017-06-19T14:08:55.934Z,26.50
2017-06-19T14:11:23.395Z,26.50
2017-06-19T14:13:50.847Z,26.50
2017-06-19T14:16:18.303Z,26.50
2017-06-19T14:18:45.767Z,26.50
2017-06-19T14:21:13.982Z,26.50
2017-06-19T14:23:41.443Z,26.50
2017-06-19T14:26:08.894Z,26.50
2017-06-19T14:28:36.354Z,26.50
2017-06-19T14:31:03.806Z,26.60
2017-06-19T14:33:31.271Z,26.60
2017-06-19T14:35:58.754Z,26.60
2017-06-19T14:38:26.223Z,26.60
2017-06-19T14:40:53.690Z,26.50
2017-06-19T14:43:21.167Z,26.50
2017-06-19T14:45:48.622Z,26.60
2017-06-19T14:48:16.117Z,26.60
2017-06-19T14:50:43.622Z,26.60
2017-06-19T14:53:11.850Z,26.70
2017-06-19T14:55:39.310Z,26.60
2017-06-19T14:58:06.766Z,26.70
2017-06-19T15:00:34.228Z,26.60
2017-06-19T15:03:01.686Z,26.70
2017-06-19T15:05:29.142Z,26.60
2017-06-19T15:07:56.598Z,26.60
2017-06-19T15:10:24.055Z,26.70
2017-06-19T15:12:51.519Z,26.70
2017-06-19T15:15:18.982Z,26.70
2017-06-19T15:17:46.438Z,26.70
2017-06-19T15:20:13.898Z,26.70
2017-06-19T15:22:41.351Z,26.70
2017-06-19T15:25:08.818Z,26.70
2017-06-19T15:27:36.274Z,26.70
2017-06-19T15:30:03.724Z,26.70
2017-06-19T15:32:31.183Z,26.70
2017-06-19T15:34:58.642Z,26.70
2017-06-19T15:37:26.102Z,26.70
2017-06-19T15:39:53.568Z,26.70
2017-06-19T15:42:21.790Z,26.70
2017-06-19T15:44:49.342Z,26.70
2017-06-19T15:47:16.897Z,26.70
2017-06-19T15:49:44.354Z,26.70
2017-06-19T15:52:11.810Z,26.70
2017-06-19T15:54:39.305Z,26.70
2017-06-19T15:57:06.751Z,26.70
2017-06-19T15:59:34.210Z,26.70
2017-06-19T16:02:01.675Z,26.70
2017-06-19T16:04:29.134Z,26.70
2017-06-19T16:06:56.603Z,26.70
2017-06-19T16:09:24.059Z,26.70
2017-06-19T16:11:57.342Z,26.70
2017-06-19T16:14:24.806Z,26.70
2017-06-19T16:16:52.262Z,26.70
2017-06-19T16:19:21.152Z,26.70
2017-06-19T16:21:49.000Z,26.70
2017-06-19T16:24:17.270Z,26.70
2017-06-19T16:26:44.781Z,26.70
2017-06-19T16:29:12.238Z,26.70
2017-06-19T16:31:39.730Z,26.70
2017-06-19T16:34:07.223Z,26.70
2017-06-19T16:36:34.682Z,26.70
2017-06-19T16:39:02.135Z,26.70
2017-06-19T16:41:30.361Z,26.70
2017-06-19T16:43:57.859Z,26.70
2017-06-19T16:46:25.331Z,26.70
2017-06-19T16:48:52.791Z,26.70
2017-06-19T16:51:21.050Z,26.70
2017-06-19T16:53:48.510Z,26.70
2017-06-19T16:56:15.973Z,26.70
2017-06-19T16:58:43.574Z,26.70
2017-06-19T17:01:11.029Z,26.70
2017-06-19T17:03:38.492Z,26.70
2017-06-19T17:06:06.006Z,26.70
2017-06-19T17:08:34.234Z,26.60
2017-06-19T17:11:01.694Z,26.60
2017-06-19T17:13:29.155Z,26.70
2017-06-19T17:15:56.631Z,26.60
2017-06-19T17:18:24.097Z,26.60
2017-06-19T17:20:52.344Z,26.70
2017-06-19T17:23:19.804Z,26.70
2017-06-19T17:25:47.267Z,26.70
2017-06-19T17:28:15.302Z,26.70
2017-06-19T17:30:42.758Z,26.80
2017-06-19T17:33:10.231Z,26.80
2017-06-19T17:35:37.703Z,26.80
2017-06-19T17:38:05.170Z,26.90
2017-06-19T17:40:32.663Z,27.00
2017-06-19T17:43:00.146Z,27.00
2017-06-19T17:45:27.701Z,27.10
2017-06-19T17:47:55.166Z,27.10
2017-06-19T17:50:22.643Z,27.20
2017-06-19T17:52:50.100Z,27.20
2017-06-19T17:55:17.587Z,27.20
2017-06-19T17:57:45.823Z,27.30
2017-06-19T18:00:13.279Z,27.30
2017-06-19T18:02:40.795Z,27.40
2017-06-19T18:05:08.279Z,27.40
2017-06-19T18:07:35.736Z,27.40
2017-06-19T18:10:03.191Z,27.50
2017-06-19T18:12:30.666Z,27.50
2017-06-19T18:14:58.262Z,27.60
2017-06-19T18:17:26.530Z,27.60
2017-06-19T18:19:54.006Z,27.60
2017-06-19T18:22:21.533Z,27.70
2017-06-19T18:24:49.016Z,27.60
2017-06-19T18:27:17.211Z,27.60
2017-06-19T18:29:45.833Z,27.60
2017-06-19T18:32:15.319Z,27.50
2017-06-19T18:34:44.360Z,27.50
2017-06-19T18:37:12.385Z,27.60
2017-06-19T18:39:40.764Z,27.60
2017-06-19T18:42:09.844Z,27.50
2017-06-19T18:44:38.852Z,27.50
2017-06-19T18:47:06.562Z,27.50
2017-06-19T18:49:36.349Z,27.50
2017-06-19T18:52:05.193Z,27.50
2017-06-19T18:54:34.314Z,27.60
2017-06-19T18:57:02.615Z,27.50
2017-06-19T18:59:31.485Z,27.50
2017-06-19T19:02:01.282Z,27.50
2017-06-19T19:04:30.621Z,27.50
2017-06-19T19:07:00.360Z,27.50
2017-06-19T19:09:29.089Z,27.50
2017-06-19T19:11:57.669Z,27.50
2017-06-19T19:14:26.205Z,27.40
2017-06-19T19:16:54.333Z,27.50
2017-06-19T19:19:22.394Z,27.40
2017-06-19T19:21:52.074Z,27.30
2017-06-19T19:24:20.768Z,27.30
2017-06-19T19:26:49.522Z,27.30
2017-06-19T19:29:17.801Z,27.30
2017-06-19T19:31:45.901Z,27.30
2017-06-19T19:34:13.960Z,27.20
2017-06-19T19:36:42.677Z,27.20
2017-06-19T19:39:11.658Z,27.20
2017-06-19T19:41:40.845Z,27.10
2017-06-19T19:44:09.097Z,27.10
2017-06-19T19:46:38.526Z,27.10
2017-06-19T19:49:07.708Z,27.00
2017-06-19T19:51:35.768Z,27.10
2017-06-19T19:54:03.691Z,27.00
2017-06-19T19:56:31.834Z,27.00
2017-06-19T19:58:59.607Z,27.00
2017-06-19T20:01:28.282Z,26.90
2017-06-19T20:03:58.446Z,26.90
2017-06-19T20:06:26.267Z,26.90
2017-06-19T20:08:55.891Z,26.90
2017-06-19T20:11:24.410Z,26.90
2017-06-19T20:13:52.912Z,26.90
2017-06-19T20:16:22.618Z,26.90
2017-06-19T20:18:50.323Z,26.80
2017-06-19T20:21:19.044Z,26.90
2017-06-19T20:23:47.483Z,26.90
2017-06-19T20:26:15.586Z,26.80
2017-06-19T20:28:43.822Z,26.90
2017-06-19T20:31:11.867Z,26.80
2017-06-19T20:33:39.982Z,26.90
2017-06-19T20:36:08.326Z,26.80
2017-06-19T20:38:36.541Z,26.90
2017-06-19T20:41:04.929Z,26.80
2017-06-19T20:43:32.481Z,26.80
2017-06-19T20:46:01.002Z,26.90
2017-06-19T20:48:29.175Z,27.00
2017-06-19T20:50:58.096Z,27.00
2017-06-19T20:53:26.611Z,26.90
2017-06-19T20:55:56.083Z,27.00
2017-06-19T20:58:25.571Z,27.00
2017-06-19T21:00:53.994Z,27.00
2017-06-19T21:03:23.485Z,27.00
2017-06-19T21:05:51.882Z,27.00
2017-06-19T21:08:21.249Z,26.90
2017-06-19T21:10:49.859Z,26.90
2017-06-19T21:13:19.074Z,26.90
2017-06-19T21:15:47.632Z,26.90
2017-06-19T21:18:17.097Z,26.90
2017-06-19T21:20:47.281Z,26.80
2017-06-19T21:23:15.732Z,26.80
2017-06-19T21:25:45.118Z,26.80
2017-06-19T21:28:13.881Z,26.80
2017-06-19T21:30:42.795Z,26.80
2017-06-19T21:33:11.368Z,26.70
2017-06-19T21:35:40.569Z,26.60
2017-06-19T21:38:09.058Z,26.50
2017-06-19T21:40:37.448Z,26.50
2017-06-19T21:43:06.679Z,26.50
2017-06-19T21:45:36.883Z,26.40
2017-06-19T21:48:05.679Z,26.40
2017-06-19T21:50:34.157Z,26.40
2017-06-19T21:53:03.164Z,26.40
2017-06-19T21:55:31.640Z,26.50
2017-06-19T21:58:00.985Z,26.40
2017-06-19T22:00:30.490Z,26.30
2017-06-19T22:02:59.889Z,26.20
2017-06-19T22:05:28.579Z,26.20
2017-06-19T22:07:56.886Z,26.30
2017-06-19T22:10:25.956Z,26.30
2017-06-19T22:12:55.017Z,26.30
2017-06-19T22:15:26.033Z,26.30
2017-06-19T22:17:55.325Z,26.20
2017-06-19T22:20:24.462Z,26.30
2017-06-19T22:22:59.511Z,26.10
2017-06-19T22:25:28.437Z,26.10
2017-06-19T22:27:59.004Z,26.20
2017-06-19T22:30:28.737Z,26.20
2017-06-19T22:32:57.589Z,26.20
2017-06-19T22:35:28.757Z,26.30
2017-06-19T22:37:58.246Z,26.30
2017-06-19T22:40:27.798Z,26.30
2017-06-19T22:42:56.609Z,26.30
2017-06-19T22:45:25.051Z,26.20
2017-06-19T22:47:56.612Z,26.30
2017-06-19T22:50:25.922Z,26.30
2017-06-19T22:52:55.686Z,26.30
2017-06-19T22:55:26.438Z,26.30
2017-06-19T22:57:55.999Z,26.30
2017-06-19T23:00:24.727Z,26.30
2017-06-19T23:02:53.498Z,26.30
2017-06-19T23:05:22.184Z,26.30
2017-06-19T23:07:52.124Z,26.20
2017-06-19T23:10:20.905Z,26.30
2017-06-19T23:12:49.902Z,26.20
2017-06-19T23:15:19.317Z,26.20
2017-06-19T23:17:46.826Z,26.20
2017-06-19T23:20:14.311Z,26.20
2017-06-19T23:22:41.803Z,26.10
2017-06-19T23:25:09.294Z,26.20
2017-06-19T23:27:36.827Z,26.20
2017-06-19T23:30:04.287Z,26.10
2017-06-19T23:32:31.749Z,26.20
2017-06-19T23:34:59.291Z,26.10
2017-06-19T23:37:27.555Z,26.10
2017-06-19T23:39:55.010Z,26.20
2017-06-19T23:42:22.581Z,26.20
2017-06-19T23:44:50.162Z,26.20
2017-06-19T23:47:18.419Z,26.10
2017-06-19T23:49:46.008Z,26.10
2017-06-19T23:52:17.115Z,26.20
2017-06-19T23:54:44.639Z,26.20
2017-06-19T23:57:12.102Z,26.20
2017-06-19T23:59:39.579Z,26.10
